sensor_id;sensor_type;location;lat;lon;timestamp;temperature;humidity
74488;DHT22;63019;51.080;13.642;2023-05-10T00:00:05;12.90;94.20
74488;DHT22;63019;51.080;13.642;2023-05-10T00:01:07;12.90;94.40
74488;DHT22;63019;51.080;13.642;2023-05-10T00:02:09;12.90;94.40
74488;DHT22;63019;51.080;13.642;2023-05-10T00:03:11;12.80;94.50
74488;DHT22;63019;51.080;13.642;2023-05-10T00:04:13;12.80;94.50
74488;DHT22;63019;51.080;13.642;2023-05-10T00:05:15;12.80;94.40
74488;DHT22;63019;51.080;13.642;2023-05-10T00:06:17;12.80;94.50
74488;DHT22;63019;51.080;13.642;2023-05-10T00:07:19;12.80;94.60
74488;DHT22;63019;51.080;13.642;2023-05-10T00:08:21;12.80;94.60
74488;DHT22;63019;51.080;13.642;2023-05-10T00:09:22;12.80;94.50
74488;DHT22;63019;51.080;13.642;2023-05-10T00:10:24;12.80;94.60
74488;DHT22;63019;51.080;13.642;2023-05-10T00:11:26;12.80;94.60
74488;DHT22;63019;51.080;13.642;2023-05-10T00:12:34;12.70;94.60
74488;DHT22;63019;51.080;13.642;2023-05-10T00:13:36;12.70;94.70
74488;DHT22;63019;51.080;13.642;2023-05-10T00:14:38;12.70;94.70
74488;DHT22;63019;51.080;13.642;2023-05-10T00:15:39;12.70;94.80
74488;DHT22;63019;51.080;13.642;2023-05-10T00:16:41;12.70;94.80
74488;DHT22;63019;51.080;13.642;2023-05-10T00:17:43;12.70;94.90
74488;DHT22;63019;51.080;13.642;2023-05-10T00:18:45;12.70;94.90
74488;DHT22;63019;51.080;13.642;2023-05-10T00:19:46;12.70;95.10
74488;DHT22;63019;51.080;13.642;2023-05-10T00:20:48;12.60;95.10
74488;DHT22;63019;51.080;13.642;2023-05-10T00:21:50;12.60;95.20
74488;DHT22;63019;51.080;13.642;2023-05-10T00:22:52;12.60;95.10
74488;DHT22;63019;51.080;13.642;2023-05-10T00:23:54;12.60;95.20
74488;DHT22;63019;51.080;13.642;2023-05-10T00:24:56;12.60;95.20
74488;DHT22;63019;51.080;13.642;2023-05-10T00:25:58;12.50;95.20
74488;DHT22;63019;51.080;13.642;2023-05-10T00:27:00;12.50;95.20
74488;DHT22;63019;51.080;13.642;2023-05-10T00:28:02;12.50;95.30
74488;DHT22;63019;51.080;13.642;2023-05-10T00:29:04;12.50;95.40
74488;DHT22;63019;51.080;13.642;2023-05-10T00:30:06;12.50;95.30
74488;DHT22;63019;51.080;13.642;2023-05-10T00:31:08;12.50;95.50
74488;DHT22;63019;51.080;13.642;2023-05-10T00:32:10;12.50;95.40
74488;DHT22;63019;51.080;13.642;2023-05-10T00:33:12;12.50;95.50
74488;DHT22;63019;51.080;13.642;2023-05-10T00:34:14;12.50;95.40
74488;DHT22;63019;51.080;13.642;2023-05-10T00:35:16;12.50;95.30
74488;DHT22;63019;51.080;13.642;2023-05-10T00:36:18;12.50;95.50
74488;DHT22;63019;51.080;13.642;2023-05-10T00:37:20;12.50;95.60
74488;DHT22;63019;51.080;13.642;2023-05-10T00:38:21;12.40;95.60
74488;DHT22;63019;51.080;13.642;2023-05-10T00:39:23;12.40;95.60
74488;DHT22;63019;51.080;13.642;2023-05-10T00:40:25;12.40;95.60
74488;DHT22;63019;51.080;13.642;2023-05-10T00:41:27;12.40;95.60
74488;DHT22;63019;51.080;13.642;2023-05-10T00:42:29;12.40;95.70
74488;DHT22;63019;51.080;13.642;2023-05-10T00:43:31;12.30;95.60
74488;DHT22;63019;51.080;13.642;2023-05-10T00:44:32;12.30;95.60
74488;DHT22;63019;51.080;13.642;2023-05-10T00:45:35;12.30;95.60
74488;DHT22;63019;51.080;13.642;2023-05-10T00:46:38;12.30;95.60
74488;DHT22;63019;51.080;13.642;2023-05-10T00:47:39;12.30;95.70
74488;DHT22;63019;51.080;13.642;2023-05-10T00:48:43;12.30;95.70
74488;DHT22;63019;51.080;13.642;2023-05-10T00:49:46;12.30;95.70
74488;DHT22;63019;51.080;13.642;2023-05-10T00:50:48;12.30;95.70
74488;DHT22;63019;51.080;13.642;2023-05-10T00:51:50;12.30;95.90
74488;DHT22;63019;51.080;13.642;2023-05-10T00:52:52;12.30;96.00
74488;DHT22;63019;51.080;13.642;2023-05-10T00:53:54;12.20;96.00
74488;DHT22;63019;51.080;13.642;2023-05-10T00:54:57;12.20;96.00
74488;DHT22;63019;51.080;13.642;2023-05-10T00:55:59;12.20;95.90
74488;DHT22;63019;51.080;13.642;2023-05-10T00:57:02;12.20;96.00
74488;DHT22;63019;51.080;13.642;2023-05-10T00:58:04;12.20;96.40
74488;DHT22;63019;51.080;13.642;2023-05-10T00:59:09;12.10;96.00
74488;DHT22;63019;51.080;13.642;2023-05-10T01:00:12;12.10;96.10
74488;DHT22;63019;51.080;13.642;2023-05-10T01:01:14;12.20;96.20
74488;DHT22;63019;51.080;13.642;2023-05-10T01:02:16;12.20;96.10
74488;DHT22;63019;51.080;13.642;2023-05-10T01:03:18;12.20;96.00
74488;DHT22;63019;51.080;13.642;2023-05-10T01:04:20;12.20;96.00
74488;DHT22;63019;51.080;13.642;2023-05-10T01:05:27;12.20;96.00
74488;DHT22;63019;51.080;13.642;2023-05-10T01:06:29;12.10;96.10
74488;DHT22;63019;51.080;13.642;2023-05-10T01:07:31;12.10;96.10
74488;DHT22;63019;51.080;13.642;2023-05-10T01:08:33;12.10;96.10
74488;DHT22;63019;51.080;13.642;2023-05-10T01:09:35;12.10;96.10
74488;DHT22;63019;51.080;13.642;2023-05-10T01:10:37;12.10;96.10
74488;DHT22;63019;51.080;13.642;2023-05-10T01:11:40;12.10;96.10
74488;DHT22;63019;51.080;13.642;2023-05-10T01:12:44;12.10;96.20
74488;DHT22;63019;51.080;13.642;2023-05-10T01:13:53;12.10;96.20
74488;DHT22;63019;51.080;13.642;2023-05-10T01:14:57;12.00;96.30
74488;DHT22;63019;51.080;13.642;2023-05-10T01:15:59;12.00;96.40
74488;DHT22;63019;51.080;13.642;2023-05-10T01:17:05;12.00;96.50
74488;DHT22;63019;51.080;13.642;2023-05-10T01:18:08;11.90;96.40
74488;DHT22;63019;51.080;13.642;2023-05-10T01:19:19;11.90;96.50
74488;DHT22;63019;51.080;13.642;2023-05-10T01:20:23;11.90;96.40
74488;DHT22;63019;51.080;13.642;2023-05-10T01:25:48;11.90;96.60
74488;DHT22;63019;51.080;13.642;2023-05-10T01:33:00;11.80;96.90
74488;DHT22;63019;51.080;13.642;2023-05-10T01:34:13;11.80;96.90
74488;DHT22;63019;51.080;13.642;2023-05-10T01:37:02;11.80;96.90
74488;DHT22;63019;51.080;13.642;2023-05-10T01:38:22;11.70;97.00
74488;DHT22;63019;51.080;13.642;2023-05-10T01:39:47;11.70;97.00
74488;DHT22;63019;51.080;13.642;2023-05-10T01:42:10;11.70;97.00
74488;DHT22;63019;51.080;13.642;2023-05-10T01:43:19;11.70;96.90
74488;DHT22;63019;51.080;13.642;2023-05-10T01:46:16;11.60;97.20
74488;DHT22;63019;51.080;13.642;2023-05-10T01:47:42;11.60;97.10
74488;DHT22;63019;51.080;13.642;2023-05-10T01:48:47;11.60;97.40
74488;DHT22;63019;51.080;13.642;2023-05-10T01:49:53;11.60;97.00
74488;DHT22;63019;51.080;13.642;2023-05-10T01:50:56;11.60;97.10
74488;DHT22;63019;51.080;13.642;2023-05-10T01:52:04;11.60;97.00
74488;DHT22;63019;51.080;13.642;2023-05-10T01:53:10;11.60;97.10
74488;DHT22;63019;51.080;13.642;2023-05-10T01:54:14;11.60;96.90
74488;DHT22;63019;51.080;13.642;2023-05-10T01:55:20;11.60;97.00
74488;DHT22;63019;51.080;13.642;2023-05-10T01:56:25;11.60;97.00
74488;DHT22;63019;51.080;13.642;2023-05-10T01:57:33;11.60;97.00
74488;DHT22;63019;51.080;13.642;2023-05-10T01:58:36;11.60;97.00
74488;DHT22;63019;51.080;13.642;2023-05-10T01:59:41;11.60;97.00
74488;DHT22;63019;51.080;13.642;2023-05-10T02:00:45;11.60;97.00
74488;DHT22;63019;51.080;13.642;2023-05-10T02:01:48;11.60;97.00
74488;DHT22;63019;51.080;13.642;2023-05-10T02:02:52;11.60;97.10
74488;DHT22;63019;51.080;13.642;2023-05-10T02:03:57;11.50;97.10
74488;DHT22;63019;51.080;13.642;2023-05-10T02:05:00;11.50;97.00
74488;DHT22;63019;51.080;13.642;2023-05-10T02:06:02;11.50;97.10
74488;DHT22;63019;51.080;13.642;2023-05-10T02:07:06;11.50;97.10
74488;DHT22;63019;51.080;13.642;2023-05-10T02:08:08;11.50;97.10
74488;DHT22;63019;51.080;13.642;2023-05-10T02:09:11;11.50;97.00
74488;DHT22;63019;51.080;13.642;2023-05-10T02:10:15;11.50;97.10
74488;DHT22;63019;51.080;13.642;2023-05-10T02:11:19;11.50;97.00
74488;DHT22;63019;51.080;13.642;2023-05-10T02:12:23;11.50;97.10
74488;DHT22;63019;51.080;13.642;2023-05-10T02:13:26;11.50;97.10
74488;DHT22;63019;51.080;13.642;2023-05-10T02:14:30;11.50;97.20
74488;DHT22;63019;51.080;13.642;2023-05-10T02:15:34;11.50;97.20
74488;DHT22;63019;51.080;13.642;2023-05-10T02:16:38;11.50;97.20
74488;DHT22;63019;51.080;13.642;2023-05-10T02:17:42;11.50;97.20
74488;DHT22;63019;51.080;13.642;2023-05-10T02:18:45;11.50;97.30
74488;DHT22;63019;51.080;13.642;2023-05-10T02:19:49;11.50;97.40
74488;DHT22;63019;51.080;13.642;2023-05-10T02:20:54;11.40;97.40
74488;DHT22;63019;51.080;13.642;2023-05-10T02:21:57;11.40;97.10
74488;DHT22;63019;51.080;13.642;2023-05-10T02:23:01;11.40;97.30
74488;DHT22;63019;51.080;13.642;2023-05-10T02:24:04;11.40;97.30
74488;DHT22;63019;51.080;13.642;2023-05-10T02:25:08;11.40;97.40
74488;DHT22;63019;51.080;13.642;2023-05-10T02:26:11;11.40;97.60
74488;DHT22;63019;51.080;13.642;2023-05-10T02:27:15;11.40;97.40
74488;DHT22;63019;51.080;13.642;2023-05-10T02:28:19;11.40;97.50
74488;DHT22;63019;51.080;13.642;2023-05-10T02:29:25;11.30;97.50
74488;DHT22;63019;51.080;13.642;2023-05-10T02:30:29;11.30;97.60
74488;DHT22;63019;51.080;13.642;2023-05-10T02:31:33;11.30;97.60
74488;DHT22;63019;51.080;13.642;2023-05-10T02:32:37;11.30;97.80
74488;DHT22;63019;51.080;13.642;2023-05-10T02:33:39;11.30;97.70
74488;DHT22;63019;51.080;13.642;2023-05-10T02:34:42;11.30;97.80
74488;DHT22;63019;51.080;13.642;2023-05-10T02:35:47;11.30;97.70
74488;DHT22;63019;51.080;13.642;2023-05-10T02:36:50;11.20;97.80
74488;DHT22;63019;51.080;13.642;2023-05-10T02:37:53;11.20;97.90
74488;DHT22;63019;51.080;13.642;2023-05-10T02:38:56;11.20;97.90
74488;DHT22;63019;51.080;13.642;2023-05-10T02:39:58;11.20;97.80
74488;DHT22;63019;51.080;13.642;2023-05-10T02:41:02;11.20;97.80
74488;DHT22;63019;51.080;13.642;2023-05-10T02:42:05;11.20;97.80
74488;DHT22;63019;51.080;13.642;2023-05-10T02:43:12;11.20;98.00
74488;DHT22;63019;51.080;13.642;2023-05-10T02:44:16;11.20;98.00
74488;DHT22;63019;51.080;13.642;2023-05-10T02:45:21;11.10;98.00
74488;DHT22;63019;51.080;13.642;2023-05-10T02:46:23;11.10;98.10
74488;DHT22;63019;51.080;13.642;2023-05-10T02:47:25;11.10;98.30
74488;DHT22;63019;51.080;13.642;2023-05-10T02:48:28;11.10;98.30
74488;DHT22;63019;51.080;13.642;2023-05-10T02:49:30;11.10;98.30
74488;DHT22;63019;51.080;13.642;2023-05-10T02:50:33;11.00;98.40
74488;DHT22;63019;51.080;13.642;2023-05-10T02:51:44;11.00;98.50
74488;DHT22;63019;51.080;13.642;2023-05-10T02:52:51;11.00;98.50
74488;DHT22;63019;51.080;13.642;2023-05-10T02:53:53;11.00;98.60
74488;DHT22;63019;51.080;13.642;2023-05-10T02:55:01;11.00;98.60
74488;DHT22;63019;51.080;13.642;2023-05-10T02:56:08;11.00;98.60
74488;DHT22;63019;51.080;13.642;2023-05-10T02:57:16;11.00;98.80
74488;DHT22;63019;51.080;13.642;2023-05-10T02:58:19;11.00;98.60
74488;DHT22;63019;51.080;13.642;2023-05-10T02:59:22;10.90;98.90
74488;DHT22;63019;51.080;13.642;2023-05-10T03:00:25;10.90;98.90
74488;DHT22;63019;51.080;13.642;2023-05-10T03:01:27;10.90;98.90
74488;DHT22;63019;51.080;13.642;2023-05-10T03:02:28;10.90;98.80
74488;DHT22;63019;51.080;13.642;2023-05-10T03:03:32;10.90;98.90
74488;DHT22;63019;51.080;13.642;2023-05-10T03:04:33;10.90;98.90
74488;DHT22;63019;51.080;13.642;2023-05-10T03:05:35;10.80;99.10
74488;DHT22;63019;51.080;13.642;2023-05-10T03:06:37;10.80;99.10
74488;DHT22;63019;51.080;13.642;2023-05-10T03:07:39;10.80;99.10
74488;DHT22;63019;51.080;13.642;2023-05-10T03:08:41;10.80;99.10
74488;DHT22;63019;51.080;13.642;2023-05-10T03:09:43;10.80;99.10
74488;DHT22;63019;51.080;13.642;2023-05-10T03:13:31;10.80;99.30
74488;DHT22;63019;51.080;13.642;2023-05-10T03:15:09;10.70;99.40
74488;DHT22;63019;51.080;13.642;2023-05-10T03:16:22;10.70;99.50
74488;DHT22;63019;51.080;13.642;2023-05-10T03:18:43;10.70;99.50
74488;DHT22;63019;51.080;13.642;2023-05-10T03:19:58;10.70;99.50
74488;DHT22;63019;51.080;13.642;2023-05-10T03:21:08;10.70;99.60
74488;DHT22;63019;51.080;13.642;2023-05-10T03:22:20;10.70;99.50
74488;DHT22;63019;51.080;13.642;2023-05-10T03:23:27;10.60;99.60
74488;DHT22;63019;51.080;13.642;2023-05-10T03:24:34;10.60;99.70
74488;DHT22;63019;51.080;13.642;2023-05-10T03:25:37;10.60;99.60
74488;DHT22;63019;51.080;13.642;2023-05-10T03:26:43;10.60;99.60
74488;DHT22;63019;51.080;13.642;2023-05-10T03:27:46;10.60;99.70
74488;DHT22;63019;51.080;13.642;2023-05-10T03:28:49;10.60;99.70
74488;DHT22;63019;51.080;13.642;2023-05-10T03:29:53;10.60;99.60
74488;DHT22;63019;51.080;13.642;2023-05-10T03:30:56;10.60;99.70
74488;DHT22;63019;51.080;13.642;2023-05-10T03:31:59;10.60;99.80
74488;DHT22;63019;51.080;13.642;2023-05-10T03:33:05;10.60;99.80
74488;DHT22;63019;51.080;13.642;2023-05-10T03:34:10;10.50;99.80
74488;DHT22;63019;51.080;13.642;2023-05-10T03:35:12;10.50;99.90
74488;DHT22;63019;51.080;13.642;2023-05-10T03:36:16;10.50;99.90
74488;DHT22;63019;51.080;13.642;2023-05-10T03:37:17;10.50;99.90
74488;DHT22;63019;51.080;13.642;2023-05-10T03:38:19;10.50;99.90
74488;DHT22;63019;51.080;13.642;2023-05-10T03:39:21;10.50;99.90
74488;DHT22;63019;51.080;13.642;2023-05-10T03:40:24;10.50;99.90
74488;DHT22;63019;51.080;13.642;2023-05-10T03:41:26;10.50;99.90
74488;DHT22;63019;51.080;13.642;2023-05-10T03:42:27;10.50;99.90
74488;DHT22;63019;51.080;13.642;2023-05-10T03:43:29;10.50;99.90
74488;DHT22;63019;51.080;13.642;2023-05-10T03:44:31;10.50;99.90
74488;DHT22;63019;51.080;13.642;2023-05-10T03:45:34;10.50;99.90
74488;DHT22;63019;51.080;13.642;2023-05-10T03:46:37;10.50;99.90
74488;DHT22;63019;51.080;13.642;2023-05-10T03:47:38;10.40;99.90
74488;DHT22;63019;51.080;13.642;2023-05-10T03:48:40;10.40;99.90
74488;DHT22;63019;51.080;13.642;2023-05-10T03:49:42;10.50;99.90
74488;DHT22;63019;51.080;13.642;2023-05-10T03:50:44;10.50;99.90
74488;DHT22;63019;51.080;13.642;2023-05-10T03:51:46;10.50;99.90
74488;DHT22;63019;51.080;13.642;2023-05-10T03:52:48;10.50;99.90
74488;DHT22;63019;51.080;13.642;2023-05-10T03:53:50;10.50;99.90
74488;DHT22;63019;51.080;13.642;2023-05-10T03:54:51;10.50;99.90
74488;DHT22;63019;51.080;13.642;2023-05-10T03:55:53;10.50;99.90
74488;DHT22;63019;51.080;13.642;2023-05-10T03:56:55;10.50;99.90
74488;DHT22;63019;51.080;13.642;2023-05-10T03:57:57;10.60;99.90
74488;DHT22;63019;51.080;13.642;2023-05-10T03:58:58;10.60;99.90
74488;DHT22;63019;51.080;13.642;2023-05-10T04:00:01;10.60;99.90
74488;DHT22;63019;51.080;13.642;2023-05-10T04:01:02;10.60;99.90
74488;DHT22;63019;51.080;13.642;2023-05-10T04:02:04;10.60;99.90
74488;DHT22;63019;51.080;13.642;2023-05-10T04:03:06;10.60;99.90
74488;DHT22;63019;51.080;13.642;2023-05-10T04:04:08;10.60;99.90
74488;DHT22;63019;51.080;13.642;2023-05-10T04:05:11;10.60;99.90
74488;DHT22;63019;51.080;13.642;2023-05-10T04:06:12;10.60;99.90
74488;DHT22;63019;51.080;13.642;2023-05-10T04:07:15;10.60;99.90
74488;DHT22;63019;51.080;13.642;2023-05-10T04:08:16;10.60;99.90
74488;DHT22;63019;51.080;13.642;2023-05-10T04:09:18;10.60;99.90
74488;DHT22;63019;51.080;13.642;2023-05-10T04:10:20;10.60;99.90
74488;DHT22;63019;51.080;13.642;2023-05-10T04:11:22;10.70;99.90
74488;DHT22;63019;51.080;13.642;2023-05-10T04:12:26;10.70;99.90
74488;DHT22;63019;51.080;13.642;2023-05-10T04:13:28;10.70;99.90
74488;DHT22;63019;51.080;13.642;2023-05-10T04:14:30;10.70;99.90
74488;DHT22;63019;51.080;13.642;2023-05-10T04:15:31;10.70;99.90
74488;DHT22;63019;51.080;13.642;2023-05-10T04:16:33;10.70;99.90
74488;DHT22;63019;51.080;13.642;2023-05-10T04:17:35;10.80;99.90
74488;DHT22;63019;51.080;13.642;2023-05-10T04:18:37;10.80;99.90
74488;DHT22;63019;51.080;13.642;2023-05-10T04:19:39;10.80;99.90
74488;DHT22;63019;51.080;13.642;2023-05-10T04:20:40;10.80;99.90
74488;DHT22;63019;51.080;13.642;2023-05-10T04:21:42;10.80;99.90
74488;DHT22;63019;51.080;13.642;2023-05-10T04:22:44;10.80;99.90
74488;DHT22;63019;51.080;13.642;2023-05-10T04:23:46;10.90;99.90
74488;DHT22;63019;51.080;13.642;2023-05-10T04:24:47;10.90;99.90
74488;DHT22;63019;51.080;13.642;2023-05-10T04:25:49;10.90;99.90
74488;DHT22;63019;51.080;13.642;2023-05-10T04:26:51;10.90;99.90
74488;DHT22;63019;51.080;13.642;2023-05-10T04:27:53;11.00;99.90
74488;DHT22;63019;51.080;13.642;2023-05-10T04:28:56;11.00;99.90
74488;DHT22;63019;51.080;13.642;2023-05-10T04:29:58;11.10;99.90
74488;DHT22;63019;51.080;13.642;2023-05-10T04:31:03;11.10;99.90
74488;DHT22;63019;51.080;13.642;2023-05-10T04:32:05;11.10;99.90
74488;DHT22;63019;51.080;13.642;2023-05-10T04:33:07;11.10;99.90
74488;DHT22;63019;51.080;13.642;2023-05-10T04:34:09;11.20;99.90
74488;DHT22;63019;51.080;13.642;2023-05-10T04:35:10;11.20;99.90
74488;DHT22;63019;51.080;13.642;2023-05-10T04:36:12;11.20;99.90
74488;DHT22;63019;51.080;13.642;2023-05-10T04:37:14;11.20;99.90
74488;DHT22;63019;51.080;13.642;2023-05-10T04:38:16;11.30;99.90
74488;DHT22;63019;51.080;13.642;2023-05-10T04:39:18;11.30;99.90
74488;DHT22;63019;51.080;13.642;2023-05-10T04:40:20;11.30;99.90
74488;DHT22;63019;51.080;13.642;2023-05-10T04:41:21;11.30;99.80
74488;DHT22;63019;51.080;13.642;2023-05-10T04:42:23;11.30;99.70
74488;DHT22;63019;51.080;13.642;2023-05-10T04:43:25;11.40;99.70
74488;DHT22;63019;51.080;13.642;2023-05-10T04:44:27;11.40;99.70
74488;DHT22;63019;51.080;13.642;2023-05-10T04:45:29;11.40;99.60
74488;DHT22;63019;51.080;13.642;2023-05-10T04:46:31;11.50;99.60
74488;DHT22;63019;51.080;13.642;2023-05-10T04:47:33;11.50;99.50
74488;DHT22;63019;51.080;13.642;2023-05-10T04:48:35;11.50;99.50
74488;DHT22;63019;51.080;13.642;2023-05-10T04:49:36;11.50;99.50
74488;DHT22;63019;51.080;13.642;2023-05-10T04:50:39;11.60;99.60
74488;DHT22;63019;51.080;13.642;2023-05-10T04:51:41;11.60;99.60
74488;DHT22;63019;51.080;13.642;2023-05-10T04:52:42;11.60;99.60
74488;DHT22;63019;51.080;13.642;2023-05-10T04:53:44;11.60;99.50
74488;DHT22;63019;51.080;13.642;2023-05-10T04:55:02;11.60;99.30
74488;DHT22;63019;51.080;13.642;2023-05-10T04:56:04;11.70;99.20
74488;DHT22;63019;51.080;13.642;2023-05-10T04:57:07;11.70;99.20
74488;DHT22;63019;51.080;13.642;2023-05-10T04:58:08;11.80;99.20
74488;DHT22;63019;51.080;13.642;2023-05-10T04:59:10;11.70;98.90
74488;DHT22;63019;51.080;13.642;2023-05-10T05:00:12;11.80;99.10
74488;DHT22;63019;51.080;13.642;2023-05-10T05:01:14;11.80;99.00
74488;DHT22;63019;51.080;13.642;2023-05-10T05:02:16;11.80;98.90
74488;DHT22;63019;51.080;13.642;2023-05-10T05:03:18;11.80;98.90
74488;DHT22;63019;51.080;13.642;2023-05-10T05:04:20;11.90;99.00
74488;DHT22;63019;51.080;13.642;2023-05-10T05:05:21;11.90;98.80
74488;DHT22;63019;51.080;13.642;2023-05-10T05:06:23;12.00;98.80
74488;DHT22;63019;51.080;13.642;2023-05-10T05:07:26;11.90;98.70
74488;DHT22;63019;51.080;13.642;2023-05-10T05:08:28;12.00;98.60
74488;DHT22;63019;51.080;13.642;2023-05-10T05:09:30;12.00;98.60
74488;DHT22;63019;51.080;13.642;2023-05-10T05:10:33;12.00;98.30
74488;DHT22;63019;51.080;13.642;2023-05-10T05:11:35;12.10;98.50
74488;DHT22;63019;51.080;13.642;2023-05-10T05:12:37;12.10;98.50
74488;DHT22;63019;51.080;13.642;2023-05-10T05:13:39;12.20;98.70
74488;DHT22;63019;51.080;13.642;2023-05-10T05:14:41;12.20;98.30
74488;DHT22;63019;51.080;13.642;2023-05-10T05:15:42;12.20;98.20
74488;DHT22;63019;51.080;13.642;2023-05-10T05:16:44;12.20;98.00
74488;DHT22;63019;51.080;13.642;2023-05-10T05:17:46;12.20;98.00
74488;DHT22;63019;51.080;13.642;2023-05-10T05:18:48;12.30;98.20
74488;DHT22;63019;51.080;13.642;2023-05-10T05:19:49;12.30;98.30
74488;DHT22;63019;51.080;13.642;2023-05-10T05:20:51;12.40;98.50
74488;DHT22;63019;51.080;13.642;2023-05-10T05:21:53;12.40;98.10
74488;DHT22;63019;51.080;13.642;2023-05-10T05:22:55;12.50;97.90
74488;DHT22;63019;51.080;13.642;2023-05-10T05:23:57;12.50;97.80
74488;DHT22;63019;51.080;13.642;2023-05-10T05:24:59;12.50;97.90
74488;DHT22;63019;51.080;13.642;2023-05-10T05:26:00;12.60;98.00
74488;DHT22;63019;51.080;13.642;2023-05-10T05:27:02;12.60;97.50
74488;DHT22;63019;51.080;13.642;2023-05-10T05:28:04;12.60;97.70
74488;DHT22;63019;51.080;13.642;2023-05-10T05:29:06;12.60;97.50
74488;DHT22;63019;51.080;13.642;2023-05-10T05:30:08;12.70;97.70
74488;DHT22;63019;51.080;13.642;2023-05-10T05:31:10;12.70;97.50
74488;DHT22;63019;51.080;13.642;2023-05-10T05:32:12;12.70;97.40
74488;DHT22;63019;51.080;13.642;2023-05-10T05:33:14;12.80;97.40
74488;DHT22;63019;51.080;13.642;2023-05-10T05:34:19;12.80;97.40
74488;DHT22;63019;51.080;13.642;2023-05-10T05:35:22;12.80;97.40
74488;DHT22;63019;51.080;13.642;2023-05-10T05:36:23;12.90;97.40
74488;DHT22;63019;51.080;13.642;2023-05-10T05:37:25;12.90;97.40
74488;DHT22;63019;51.080;13.642;2023-05-10T05:38:28;12.90;97.00
74488;DHT22;63019;51.080;13.642;2023-05-10T05:39:29;13.00;97.00
74488;DHT22;63019;51.080;13.642;2023-05-10T05:40:31;13.00;97.10
74488;DHT22;63019;51.080;13.642;2023-05-10T05:41:33;13.00;96.80
74488;DHT22;63019;51.080;13.642;2023-05-10T05:42:35;13.00;96.70
74488;DHT22;63019;51.080;13.642;2023-05-10T05:43:36;13.10;96.80
74488;DHT22;63019;51.080;13.642;2023-05-10T05:44:39;13.10;96.90
74488;DHT22;63019;51.080;13.642;2023-05-10T05:45:41;13.20;97.00
74488;DHT22;63019;51.080;13.642;2023-05-10T05:46:43;13.20;97.00
74488;DHT22;63019;51.080;13.642;2023-05-10T05:47:45;13.20;96.80
74488;DHT22;63019;51.080;13.642;2023-05-10T05:48:47;13.30;96.90
74488;DHT22;63019;51.080;13.642;2023-05-10T05:49:48;13.30;96.30
74488;DHT22;63019;51.080;13.642;2023-05-10T05:50:54;13.30;96.40
74488;DHT22;63019;51.080;13.642;2023-05-10T05:52:03;13.40;96.50
74488;DHT22;63019;51.080;13.642;2023-05-10T05:53:05;13.40;96.50
74488;DHT22;63019;51.080;13.642;2023-05-10T05:54:07;13.40;96.40
74488;DHT22;63019;51.080;13.642;2023-05-10T05:55:09;13.50;96.20
74488;DHT22;63019;51.080;13.642;2023-05-10T05:56:11;13.60;96.20
74488;DHT22;63019;51.080;13.642;2023-05-10T05:57:13;13.60;96.00
74488;DHT22;63019;51.080;13.642;2023-05-10T05:58:14;13.60;96.00
74488;DHT22;63019;51.080;13.642;2023-05-10T05:59:16;13.60;96.00
74488;DHT22;63019;51.080;13.642;2023-05-10T06:00:18;13.70;95.90
74488;DHT22;63019;51.080;13.642;2023-05-10T06:01:20;13.70;95.90
74488;DHT22;63019;51.080;13.642;2023-05-10T06:02:22;13.80;95.80
74488;DHT22;63019;51.080;13.642;2023-05-10T06:03:24;13.80;96.00
74488;DHT22;63019;51.080;13.642;2023-05-10T06:04:26;13.80;96.20
74488;DHT22;63019;51.080;13.642;2023-05-10T06:05:28;13.80;95.80
74488;DHT22;63019;51.080;13.642;2023-05-10T06:06:30;13.90;96.00
74488;DHT22;63019;51.080;13.642;2023-05-10T06:07:32;13.90;95.80
74488;DHT22;63019;51.080;13.642;2023-05-10T06:08:34;14.00;95.70
74488;DHT22;63019;51.080;13.642;2023-05-10T06:09:35;14.00;95.60
74488;DHT22;63019;51.080;13.642;2023-05-10T06:10:37;14.00;95.60
74488;DHT22;63019;51.080;13.642;2023-05-10T06:11:39;14.10;95.60
74488;DHT22;63019;51.080;13.642;2023-05-10T06:12:41;14.10;95.50
74488;DHT22;63019;51.080;13.642;2023-05-10T06:13:43;14.20;95.40
74488;DHT22;63019;51.080;13.642;2023-05-10T06:14:45;14.20;95.40
74488;DHT22;63019;51.080;13.642;2023-05-10T06:15:46;14.30;95.20
74488;DHT22;63019;51.080;13.642;2023-05-10T06:16:48;14.30;94.90
74488;DHT22;63019;51.080;13.642;2023-05-10T06:17:50;14.40;94.70
74488;DHT22;63019;51.080;13.642;2023-05-10T06:18:52;14.40;94.70
74488;DHT22;63019;51.080;13.642;2023-05-10T06:19:54;14.50;94.90
74488;DHT22;63019;51.080;13.642;2023-05-10T06:20:56;14.50;94.90
74488;DHT22;63019;51.080;13.642;2023-05-10T06:21:58;14.60;95.00
74488;DHT22;63019;51.080;13.642;2023-05-10T06:22:59;14.60;94.60
74488;DHT22;63019;51.080;13.642;2023-05-10T06:24:01;14.70;94.40
74488;DHT22;63019;51.080;13.642;2023-05-10T06:25:04;14.70;94.20
74488;DHT22;63019;51.080;13.642;2023-05-10T06:26:06;14.70;94.30
74488;DHT22;63019;51.080;13.642;2023-05-10T06:27:08;14.80;94.40
74488;DHT22;63019;51.080;13.642;2023-05-10T06:28:09;14.90;94.00
74488;DHT22;63019;51.080;13.642;2023-05-10T06:29:11;14.90;94.00
74488;DHT22;63019;51.080;13.642;2023-05-10T06:30:13;14.90;93.70
74488;DHT22;63019;51.080;13.642;2023-05-10T06:31:16;15.00;93.60
74488;DHT22;63019;51.080;13.642;2023-05-10T06:32:18;15.00;94.00
74488;DHT22;63019;51.080;13.642;2023-05-10T06:33:19;15.10;93.90
74488;DHT22;63019;51.080;13.642;2023-05-10T06:34:21;15.10;93.80
74488;DHT22;63019;51.080;13.642;2023-05-10T06:35:23;15.20;93.60
74488;DHT22;63019;51.080;13.642;2023-05-10T06:36:25;15.20;93.50
74488;DHT22;63019;51.080;13.642;2023-05-10T06:37:27;15.30;93.00
74488;DHT22;63019;51.080;13.642;2023-05-10T06:38:29;15.30;93.30
74488;DHT22;63019;51.080;13.642;2023-05-10T06:39:31;15.40;93.00
74488;DHT22;63019;51.080;13.642;2023-05-10T06:40:33;15.50;92.70
74488;DHT22;63019;51.080;13.642;2023-05-10T06:41:35;15.50;92.60
74488;DHT22;63019;51.080;13.642;2023-05-10T06:42:37;15.60;93.00
74488;DHT22;63019;51.080;13.642;2023-05-10T06:43:39;15.60;92.50
74488;DHT22;63019;51.080;13.642;2023-05-10T06:44:42;15.70;92.70
74488;DHT22;63019;51.080;13.642;2023-05-10T06:45:44;15.70;91.90
74488;DHT22;63019;51.080;13.642;2023-05-10T06:46:46;15.80;92.30
74488;DHT22;63019;51.080;13.642;2023-05-10T06:47:48;15.90;92.60
74488;DHT22;63019;51.080;13.642;2023-05-10T06:48:50;15.90;92.50
74488;DHT22;63019;51.080;13.642;2023-05-10T06:49:52;16.00;92.10
74488;DHT22;63019;51.080;13.642;2023-05-10T06:50:54;16.00;91.80